• Join FlightAware (Why Join?)
  • Login
  • US Flag 
07:46AM EDT


 

Airport Tracker/Info


-or-


 

Live Flight TrackerFlight Track Log ✈ AWE2690 ✈ 07-Mar-2014 ✈ KCLT - KSYR

Flight Track Log - Related Links

Times and Time Zones

All times are in EST time to prevent confusion due to time zone crossing. See the AWE2690 flight status page for this flight to view local times or setup timezone preferences in your user account.

Time Position Orientation Groundspeed Altitude Reporting Facility
EST Latitude Longitude Course Direction KTS MPH feet Rate Location/Type
01:06PM 35.2269 -80.9572 24° Northeast 146 168 1,500  Level Atlanta Center
01:07PM 35.2436 -80.9617 348° North 157 181 2,600 1,500 Climbing Atlanta Center
01:08PM 35.2969 -81.0081 325° Northwest 262 302 3,700 1,680 Climbing Atlanta Center
01:09PM 35.3614 -80.9956 North 253 291 6,000 2,580 Climbing Atlanta Center
01:10PM 35.6296 -80.7220 24° Northeast  Level Estimated
01:10PM 35.4297 -80.9750 14° North 259 298 8,800  Level Atlanta Center
01:11PM 35.7335 -80.6648 24° Northeast  Level Estimated
01:11PM 35.4961 -80.9572 12° North 259 298 10,500  Level Atlanta Center
01:12PM 35.8373 -80.6075 24° Northeast  Level Estimated
01:12PM 35.5789 -80.9311 14° North 276 318 12,100  Level Atlanta Center
01:13PM 35.6656 -80.9025 15° North 303 349 14,300 2,040 Climbing Atlanta Center
01:14PM 35.7550 -80.8836 10° North 316 364 16,200 1,860 Climbing Atlanta Center
01:15PM 35.8506 -80.8697 North 329 379 18,100 1,800 Climbing Atlanta Center
01:16PM 35.9461 -80.8556 North 339 390 19,900 1,740 Climbing Atlanta Center
01:17PM 36.0439 -80.8442 North 345 397 21,600 1,560 Climbing Atlanta Center
01:18PM 36.1458 -80.8325 North 356 410 23,100 1,320 Climbing Atlanta Center
01:19PM 36.2517 -80.8178 North 366 421 24,300 960 Climbing Atlanta Center
01:20PM 36.3619 -80.8031 North 382 440 25,100 1,200 Climbing Atlanta Center
01:21PM 36.4719 -80.7908 North 393 452 26,800 1,620 Climbing Atlanta Center
01:22PM 36.5822 -80.7736 North 393 452 28,400 1,080 Climbing Atlanta Center
01:23PM 36.6944 -80.7611 North 398 458 29,000 300 Climbing Atlanta Center
01:24PM 36.8253 -80.7481 North 413 475 29,000 420 Level Atlanta Center
01:25PM 37.0267 -80.7222 North 459 528 30,100 720 Climbing Washington Center
01:26PM 37.1531 -80.6944 10° North 459 528 31,000 420 Climbing Washington Center
01:27PM 37.2781 -80.6531 15° North 459 528 31,000  Level Washington Center
01:29PM 37.3942 -80.6164 14° North 464 534 31,000 360 Level Washington Center
01:29PM 37.5211 -80.5722 15° North 470 541 31,800 1,020 Climbing Washington Center
01:30PM 37.6461 -80.5308 15° North 465 535 33,100 1,440 Climbing Washington Center
01:32PM 37.7667 -80.4886 15° North 454 522 34,800 900 Climbing Washington Center
01:33PM 37.8850 -80.4492 15° North 444 511 35,000 60 Climbing Washington Center
01:33PM 38.0206 -80.4025 15° North 449 517 35,000  Level Washington Center
01:34PM 38.1450 -80.3628 14° North 449 517 35,000  Level Washington Center
01:36PM 38.2658 -80.3178 16° North 449 517 35,000  Level Washington Center
01:37PM 38.3864 -80.2750 16° North 449 517 35,000  Level Washington Center
01:37PM 38.5108 -80.2353 14° North 449 517 35,000  Level Washington Center
01:38PM 38.6208 -80.1969 15° North 449 517 35,000  Level Washington Center
01:39PM 38.7392 -80.1536 16° North 449 517 35,000  Level Washington Center
01:40PM 38.8619 -80.1106 15° North 449 517 35,000  Level Washington Center
01:42PM 39.0644 -79.9628 30° Northeast 447 514 35,000  Level Cleveland Center
01:43PM 39.1683 -79.8675 35° Northeast 455 524 35,000  Level Cleveland Center
01:44PM 39.2731 -79.7753 34° Northeast 455 524 35,000  Level Cleveland Center
01:45PM 39.3786 -79.6822 34° Northeast 459 528 35,000  Level Cleveland Center
01:46PM 39.5036 -79.5700 35° Northeast 459 528 35,000  Level Cleveland Center
01:47PM 39.6094 -79.4756 34° Northeast 461 531 35,000  Level Cleveland Center
01:49PM 39.7144 -79.3811 35° Northeast 461 531 35,000  Level Cleveland Center
01:50PM 39.8200 -79.2864 35° Northeast 463 533 35,000  Level Cleveland Center
01:51PM 39.9258 -79.1917 34° Northeast 464 534 35,000  Level Cleveland Center
01:52PM 40.0528 -79.0747 35° Northeast 466 536 35,000  Level Cleveland Center
01:53PM 40.1539 -78.9822 35° Northeast 466 536 35,000  Level Cleveland Center
01:54PM 40.2603 -78.8856 35° Northeast 467 537 35,000  Level Cleveland Center
01:55PM 40.3997 -78.7975 26° Northeast 470 541 35,000 -300 Level Cleveland Center
01:56PM 40.5211 -78.7403 20° North 469 540 34,400 -1,020 Descending Cleveland Center
01:57PM 40.6431 -78.6836 19° North 466 536 33,000 -900 Descending Cleveland Center
01:58PM 40.7636 -78.6275 19° North 465 535 32,600 -540 Descending Cleveland Center
01:59PM 40.8947 -78.5664 19° North 475 547 32,000 -300 Descending Cleveland Center
02:00PM 41.0231 -78.5081 19° North 484 557 32,000  Level Cleveland Center
02:01PM 41.1514 -78.4456 20° North 493 567 32,000  Level Cleveland Center
02:02PM 41.3064 -78.3731 19° North 495 570 32,000  Level Cleveland Center
02:03PM 41.4408 -78.3089 20° North 493 567 32,000 -660 Level Cleveland Center
02:04PM 41.5564 -78.2167 31° Northeast 492 566 30,700 -1,380 Descending Cleveland Center
02:05PM 41.6592 -78.1178 36° Northeast 462 532 29,200 -1,500 Descending Cleveland Center
02:06PM 41.7572 -78.0267 35° Northeast 434 499 27,700 -1,500 Descending Cleveland Center
02:07PM 41.8472 -77.9383 36° Northeast 407 468 26,200 -1,500 Descending Cleveland Center
02:08PM 41.9417 -77.8486 35° Northeast 398 458 24,600 -1,500 Descending Cleveland Center
02:09PM 42.0308 -77.7619 36° Northeast 397 457 23,100 -780 Descending Cleveland Center
02:10PM 42.1386 -77.6569 36° Northeast 398 458 23,000 -60 Descending Cleveland Center
02:11PM 42.2278 -77.5711 35° Northeast 398 458 23,000  Level Cleveland Center
02:12PM 42.3175 -77.4831 36° Northeast 399 459 23,000  Level Cleveland Center
02:13PM 42.4081 -77.3925 36° Northeast 409 471 23,000 -1,140 Level Cleveland Center
02:14PM 42.5203 -77.2847 35° Northeast 417 480 20,700 -2,160 Descending Cleveland Center
02:15PM 42.6064 -77.1975 37° Northeast 393 452 18,600 -2,040 Descending Cleveland Center
02:16PM 42.6900 -77.1158 36° Northeast 379 436 16,500 -2,100 Descending Cleveland Center
02:17PM 42.7761 -77.0294 36° Northeast 385 443 14,300 -2,160 Descending Cleveland Center
02:19PM 42.8419 -76.9219 50° Northeast 375 432 12,100 -1,680 Descending Cleveland Center
02:20PM 42.8964 -76.7717 64° Northeast 372 428 10,900 -1,140 Descending Cleveland Center
02:21PM 42.9425 -76.6786 56° Northeast 329 379 9,800 -1,140 Descending Cleveland Center
02:21PM 42.9683 -76.6197 59° Northeast 289 333 9,100 -1,560 Descending Boston Center
02:22PM 42.9947 -76.5681 55° Northeast 293 337 8,000 -1,920 Descending Boston Center
02:22PM 43.0119 -76.5289 59° Northeast 283 326 7,200 -1,800 Descending Boston Center
02:23PM 43.0375 -76.4761 56° Northeast 289 333 6,200 -1,740 Descending Boston Center
02:23PM 43.0603 -76.4219 60° Northeast 285 328 5,300 -1,200 Descending Boston Center
02:24PM 43.0783 -76.3869 55° Northeast 280 322 5,000 -300 Descending Boston Center
02:24PM 43.1044 -76.3278 59° Northeast 273 314 5,000  Level Boston Center
02:25PM 43.1172 -76.2972 60° Northeast 275 316 5,000  Level Boston Center
02:25PM 43.1397 -76.2456 59° Northeast 267 307 5,000  Level Boston Center
02:26PM 43.1564 -76.2142 54° Northeast 268 308 5,000 -540 Level Boston Center
02:26PM 43.1692 -76.1614 72° East 234 269 4,500 -1,200 Descending Boston Center
02:27PM 43.1756 -76.1278 75° East 253 291 3,800 -1,380 Descending Boston Center
02:27PM 43.1853 -76.0789 75° East 219 252 3,100 -1,380 Descending Boston Center
02:28PM 43.1878 -76.0336 86° East 226 260 2,400 -1,140 Descending Boston Center
02:28PM 43.1678 -76.0178 150° Southeast 182 209 2,000 -300 Descending Boston Center
02:29PM 43.1408 -76.0178 180° South 199 229 2,100 -300 Climbing Boston Center
02:29PM 43.1233 -76.0272 202° Southwest 146 168 1,700 -1,020 Descending Boston Center
02:30PM 43.1097 -76.0528 234° Southwest 171 197 1,100 -900 Descending Boston Center
02:30PM 43.1083 -76.0781 266° West 149 171 800 -720 Descending Boston Center
02:31PM 43.1078 -76.1075 269° West 156 180 400 -660 Descending Boston Center